Time;durP1;ratioP1;P1;durP2;ratioP2;P2;SDS_P1;SDS_P2;PMS_P1;PMS_P2;Temp;Humidity;BMP_temperature;BMP_pressure;BME280_temperature;BME280_humidity;BME280_pressure;Samples;Min_cycle;Max_cycle;Signal;HPM_P1;HPM_P2
2022/05/18 00:01:22;;;;;;;37.53;25.10;;;21.20;99.90;;;;;;7399993;19;20092;-80
2022/05/18 00:03:52;;;;;;;36.72;23.70;;;21.10;99.90;;;;;;7402825;19;20479;-80
2022/05/18 00:06:21;;;;;;;40.70;25.02;;;20.90;99.90;;;;;;7400431;19;20082;-80
2022/05/18 00:08:49;;;;;;;39.78;25.30;;;21.10;99.90;;;;;;7397808;19;20029;-81
2022/05/18 00:11:21;;;;;;;39.13;24.55;;;21.10;99.90;;;;;;7401371;19;20340;-81
2022/05/18 00:13:53;;;;;;;39.83;25.90;;;20.70;99.90;;;;;;7395906;19;20014;-80
2022/05/18 00:16:27;;;;;;;38.13;25.48;;;20.90;99.90;;;;;;7398564;19;20015;-80
2022/05/18 00:18:56;;;;;;;39.60;25.08;;;20.90;99.90;;;;;;7401344;19;20042;-80
2022/05/18 00:21:26;;;;;;;40.15;25.30;;;20.90;99.90;;;;;;7396472;19;20054;-81
2022/05/18 00:23:55;;;;;;;35.15;23.88;;;20.80;99.90;;;;;;7399645;19;20479;-80
2022/05/18 00:26:23;;;;;;;38.53;25.10;;;20.70;99.90;;;;;;7397550;19;20011;-80
2022/05/18 00:28:52;;;;;;;37.33;24.98;;;20.70;99.90;;;;;;7399475;19;20042;-80
2022/05/18 00:31:24;;;;;;;41.95;24.90;;;20.70;99.90;;;;;;7402753;19;20506;-80
2022/05/18 00:33:53;;;;;;;35.60;24.45;;;20.60;99.90;;;;;;7397897;19;20015;-81
2022/05/18 00:36:22;;;;;;;39.53;25.73;;;20.60;99.90;;;;;;7396770;19;20507;-80
2022/05/18 00:38:51;;;;;;;36.75;24.52;;;20.70;99.90;;;;;;7398835;19;20011;-80
2022/05/18 00:41:22;;;;;;;38.40;25.10;;;20.50;99.90;;;;;;7397739;19;20066;-80
2022/05/18 00:43:53;;;;;;;38.88;24.90;;;20.60;99.90;;;;;;7397593;19;20077;-80
2022/05/18 00:46:21;;;;;;;37.53;24.70;;;20.50;99.90;;;;;;7400304;19;20018;-79
2022/05/18 00:48:54;;;;;;;40.92;25.45;;;20.50;99.90;;;;;;7399981;19;20363;-80
2022/05/18 00:51:30;;;;;;;36.13;24.52;;;20.60;99.90;;;;;;7397344;19;20023;-80
2022/05/18 00:54:05;;;;;;;35.35;24.33;;;20.40;99.90;;;;;;7396662;19;20010;-80
2022/05/18 00:56:38;;;;;;;35.10;23.02;;;20.30;99.90;;;;;;7398544;19;20011;-80
2022/05/18 00:59:11;;;;;;;37.75;23.40;;;20.30;99.90;;;;;;7396562;19;20449;-81
2022/05/18 01:01:42;;;;;;;37.60;23.17;;;20.10;99.90;;;;;;7396562;19;20423;-81
2022/05/18 01:04:16;;;;;;;32.95;22.67;;;20.20;99.90;;;;;;7401785;19;20498;-82
2022/05/18 01:06:51;;;;;;;35.28;22.05;;;20.20;99.90;;;;;;7399809;19;20022;-82
2022/05/18 01:09:23;;;;;;;;;;;20.30;99.90;;;;;;7396785;19;20010;-82
2022/05/18 01:11:52;;;;;;;38.53;23.05;;;20.30;99.90;;;;;;7397998;19;20336;-82
2022/05/18 01:14:24;;;;;;;32.90;21.92;;;19.80;99.90;;;;;;7397430;19;20022;-82
2022/05/18 01:16:55;;;;;;;33.33;22.02;;;20.00;99.90;;;;;;7395918;19;20360;-82
2022/05/18 01:19:36;;;;;;;30.92;21.70;;;20.00;99.90;;;;;;7397588;19;20021;-82
2022/05/18 01:22:12;;;;;;;32.33;21.05;;;19.90;99.90;;;;;;7395766;19;20022;-82
2022/05/18 01:24:47;;;;;;;30.77;20.40;;;19.80;99.90;;;;;;7396516;19;20103;-81
2022/05/18 01:27:18;;;;;;;31.17;20.98;;;19.70;99.90;;;;;;7396144;19;20015;-81
2022/05/18 01:29:47;;;;;;;30.98;19.45;;;19.80;99.90;;;;;;7396005;19;20023;-81
2022/05/18 01:32:19;;;;;;;26.88;19.17;;;20.00;99.90;;;;;;7393207;19;20022;-81
2022/05/18 01:34:48;;;;;;;25.08;17.88;;;20.10;99.90;;;;;;7396117;19;20024;-81
2022/05/18 01:37:18;;;;;;;28.67;18.58;;;20.00;99.90;;;;;;7396887;19;20010;-81
2022/05/18 01:39:52;;;;;;;24.45;17.80;;;19.80;99.90;;;;;;7395112;19;20386;-80
2022/05/18 01:42:30;;;;;;;28.63;18.23;;;20.00;99.90;;;;;;7397401;19;20041;-81
2022/05/18 01:45:00;;;;;;;29.85;18.80;;;20.00;99.90;;;;;;7395612;19;20031;-81
2022/05/18 01:47:35;;;;;;;27.63;17.70;;;19.90;99.90;;;;;;7396737;19;20014;-81
2022/05/18 01:50:06;;;;;;;31.50;18.90;;;19.80;99.90;;;;;;7396574;19;20010;-81
2022/05/18 01:52:35;;;;;;;26.02;17.50;;;20.00;99.90;;;;;;7399287;19;20278;-80
2022/05/18 01:55:06;;;;;;;26.80;16.33;;;19.60;99.90;;;;;;7391710;19;20570;-81
2022/05/18 01:57:39;;;;;;;31.02;17.75;;;19.80;99.90;;;;;;7395579;19;20094;-81
2022/05/18 02:00:11;;;;;;;24.33;17.35;;;20.00;99.90;;;;;;7395496;19;20070;-81
2022/05/18 02:02:41;;;;;;;25.40;16.77;;;19.80;99.90;;;;;;7398215;19;20018;-80
2022/05/18 02:05:12;;;;;;;24.25;16.23;;;19.70;99.90;;;;;;7395969;19;20015;-81
2022/05/18 02:07:40;;;;;;;22.35;16.17;;;19.70;99.90;;;;;;7394764;19;20014;-80
2022/05/18 02:10:11;;;;;;;20.65;16.00;;;19.70;99.90;;;;;;7395714;19;20086;-80
2022/05/18 02:12:42;;;;;;;24.15;15.80;;;19.50;99.90;;;;;;7394619;19;20018;-81
2022/05/18 02:15:12;;;;;;;22.65;14.75;;;19.70;99.90;;;;;;7397350;19;20014;-80
2022/05/18 02:17:41;;;;;;;23.20;15.27;;;19.60;99.90;;;;;;7394170;19;20011;-80
2022/05/18 02:20:11;;;;;;;21.35;15.35;;;19.40;99.90;;;;;;7396357;19;20077;-80
2022/05/18 02:22:41;;;;;;;22.73;14.15;;;19.60;99.90;;;;;;7394920;19;20017;-80
2022/05/18 02:25:11;;;;;;;19.20;14.60;;;19.40;99.90;;;;;;7394281;19;20015;-81
2022/05/18 02:27:42;;;;;;;24.67;15.40;;;19.40;99.90;;;;;;7396552;19;20018;-80
2022/05/18 02:30:12;;;;;;;23.77;15.07;;;19.30;99.90;;;;;;7394461;19;20104;-80
2022/05/18 02:32:41;;;;;;;23.17;15.45;;;19.50;99.90;;;;;;7394427;19;20359;-80
2022/05/18 02:35:11;;;;;;;20.63;14.57;;;19.40;99.90;;;;;;7397104;19;20025;-80
2022/05/18 02:37:40;;;;;;;21.17;14.60;;;19.40;99.90;;;;;;7393168;19;20057;-80
2022/05/18 02:40:12;;;;;;;24.70;15.23;;;19.20;99.90;;;;;;7396237;19;20038;-80
2022/05/18 02:42:43;;;;;;;22.27;14.88;;;19.20;99.90;;;;;;7393671;19;20018;-80
2022/05/18 02:45:13;;;;;;;20.35;14.40;;;19.00;99.90;;;;;;7394276;19;20404;-80
2022/05/18 02:47:42;;;;;;;25.63;15.55;;;19.20;99.90;;;;;;7394964;19;20028;-80
2022/05/18 02:50:11;;;;;;;21.05;15.00;;;19.20;99.90;;;;;;7392124;19;20369;-81
2022/05/18 02:52:40;;;;;;;23.27;15.35;;;19.20;99.90;;;;;;7394358;19;20032;-80
2022/05/18 02:57:55;;;;;;;22.92;14.93;;;19.00;99.90;;;;;;7393041;19;20015;-81
2022/05/18 03:00:24;;;;;;;22.83;14.48;;;19.20;99.90;;;;;;7396405;19;20412;-81
2022/05/18 03:02:53;;;;;;;23.70;15.80;;;19.00;99.90;;;;;;7393429;19;20038;-82
2022/05/18 03:05:22;;;;;;;22.95;14.63;;;18.90;99.90;;;;;;7392692;19;20035;-82
2022/05/18 03:07:51;;;;;;;21.52;14.93;;;18.80;99.90;;;;;;7394360;19;20078;-81
2022/05/18 03:10:21;;;;;;;22.17;14.68;;;18.90;99.90;;;;;;7391347;19;20015;-80
2022/05/18 03:12:50;;;;;;;18.88;14.00;;;18.90;99.90;;;;;;7395890;19;20015;-82
2022/05/18 03:15:21;;;;;;;22.58;15.43;;;18.80;99.90;;;;;;7392326;19;20030;-81
2022/05/18 03:17:50;;;;;;;25.45;14.45;;;18.70;99.90;;;;;;7393155;19;20015;-81
2022/05/18 03:25:42;;;;;;;18.85;14.65;;;18.80;99.90;;;;;;7392375;19;20484;-80
2022/05/18 03:28:11;;;;;;;19.95;14.13;;;18.70;99.90;;;;;;7391616;19;20369;-80
2022/05/18 03:30:43;;;;;;;18.30;13.73;;;18.60;99.90;;;;;;7392473;19;20006;-80
2022/05/18 03:33:11;;;;;;;18.58;13.43;;;18.70;99.90;;;;;;7395413;19;20018;-81
2022/05/18 03:35:40;;;;;;;19.42;13.25;;;18.70;99.90;;;;;;7393529;19;20033;-82
2022/05/18 03:38:09;;;;;;;19.17;13.88;;;18.60;99.90;;;;;;7393906;19;20094;-79
2022/05/18 03:40:38;;;;;;;19.60;13.48;;;18.70;99.90;;;;;;7392552;19;20363;-80
2022/05/18 03:43:08;;;;;;;17.42;12.90;;;18.70;99.90;;;;;;7392132;19;20010;-80
2022/05/18 03:45:37;;;;;;;18.33;13.13;;;18.50;99.90;;;;;;7391467;19;20010;-80
2022/05/18 03:48:11;;;;;;;18.65;13.52;;;18.60;99.90;;;;;;7392446;19;20027;-80
2022/05/18 03:50:40;;;;;;;18.25;13.10;;;18.60;99.90;;;;;;7390602;19;20495;-80
2022/05/18 03:53:10;;;;;;;20.95;13.32;;;18.40;99.90;;;;;;7393541;19;20018;-80
2022/05/18 03:55:41;;;;;;;19.20;13.02;;;18.50;99.90;;;;;;7392124;19;20023;-80
2022/05/18 03:58:11;;;;;;;20.55;12.55;;;18.40;99.90;;;;;;7394744;19;20007;-80
2022/05/18 04:00:41;;;;;;;17.42;12.40;;;18.60;99.90;;;;;;7393068;19;20503;-80
2022/05/18 04:03:15;;;;;;;19.75;12.95;;;18.70;99.90;;;;;;7398916;19;20367;-80
2022/05/18 04:05:44;;;;;;;18.80;12.88;;;18.40;99.90;;;;;;7397261;19;20036;-80
2022/05/18 04:08:14;;;;;;;17.10;12.40;;;18.60;99.90;;;;;;7396711;19;20428;-80
2022/05/18 04:10:43;;;;;;;18.02;12.48;;;18.30;99.90;;;;;;7400373;19;20081;-80
2022/05/18 04:13:15;;;;;;;15.85;11.63;;;18.30;99.90;;;;;;7396077;19;20021;-80
2022/05/18 04:15:44;;;;;;;17.02;12.32;;;18.30;99.90;;;;;;7396374;19;20022;-80
2022/05/18 04:18:15;;;;;;;16.02;12.15;;;18.40;99.90;;;;;;7399630;19;20015;-80
2022/05/18 04:20:45;;;;;;;16.58;12.00;;;18.40;99.90;;;;;;7397428;19;20014;-80
2022/05/18 04:23:15;;;;;;;19.35;12.52;;;18.40;99.90;;;;;;7398866;19;20007;-80
2022/05/18 04:25:44;;;;;;;18.02;12.20;;;18.50;99.90;;;;;;7401173;19;20015;-80
2022/05/18 04:28:15;;;;;;;17.95;12.25;;;18.30;99.90;;;;;;7396802;19;20086;-80
2022/05/18 04:30:45;;;;;;;15.05;11.77;;;18.40;99.90;;;;;;7398424;19;20022;-80
2022/05/18 04:33:20;;;;;;;15.27;11.95;;;18.20;99.90;;;;;;7399701;19;20371;-79
2022/05/18 04:35:51;;;;;;;15.05;12.00;;;18.40;99.90;;;;;;7397153;19;20015;-79
2022/05/18 04:38:23;;;;;;;18.67;12.07;;;18.30;99.90;;;;;;7400161;19;20011;-80
2022/05/18 04:40:52;;;;;;;16.00;10.85;;;18.40;99.90;;;;;;7397872;19;20010;-79
2022/05/18 04:43:21;;;;;;;16.15;11.27;;;18.30;99.90;;;;;;7399912;19;20021;-80
2022/05/18 04:45:51;;;;;;;16.98;11.60;;;18.30;99.90;;;;;;7400819;19;20106;-81
2022/05/18 04:48:24;;;;;;;15.95;10.77;;;18.20;99.90;;;;;;7396764;19;20504;-79
2022/05/18 04:50:53;;;;;;;15.70;11.00;;;18.30;99.90;;;;;;7399883;19;20022;-79
2022/05/18 04:53:22;;;;;;;16.10;10.93;;;18.40;99.90;;;;;;7396922;19;20056;-80
2022/05/18 04:55:53;;;;;;;16.45;11.40;;;18.40;99.90;;;;;;7397547;19;20025;-79
2022/05/18 04:58:22;;;;;;;12.48;10.30;;;18.40;99.90;;;;;;7398282;19;20021;-79
2022/05/18 05:00:58;;;;;;;17.50;11.02;;;18.40;99.90;;;;;;7399156;19;20463;-79
2022/05/18 05:03:30;;;;;;;13.80;10.52;;;18.40;99.90;;;;;;7396815;19;20025;-79
2022/05/18 05:05:59;;;;;;;15.98;11.02;;;18.30;99.90;;;;;;7398643;19;20031;-79
2022/05/18 05:08:28;;;;;;;14.27;10.68;;;18.40;99.90;;;;;;7396986;19;20007;-79
2022/05/18 05:10:57;;;;;;;15.85;10.30;;;18.40;99.90;;;;;;7394638;19;20018;-78
2022/05/18 05:13:27;;;;;;;16.77;11.23;;;18.30;99.90;;;;;;7396765;19;20011;-79
2022/05/18 05:16:02;;;;;;;14.63;10.57;;;18.10;99.90;;;;;;7397653;19;20024;-79
2022/05/18 05:18:34;;;;;;;13.87;10.63;;;18.30;99.90;;;;;;7398574;19;20018;-78
2022/05/18 05:21:03;;;;;;;15.40;10.57;;;18.40;99.90;;;;;;7397512;19;20018;-78
2022/05/18 05:23:32;;;;;;;13.75;10.60;;;18.40;99.90;;;;;;7395897;19;20397;-80
2022/05/18 05:26:02;;;;;;;12.75;10.73;;;18.60;99.90;;;;;;7396674;19;20333;-79
2022/05/18 05:28:31;;;;;;;14.10;10.57;;;18.50;99.90;;;;;;7394410;19;20491;-80
2022/05/18 05:31:03;;;;;;;17.30;11.63;;;18.60;99.90;;;;;;7395630;19;20486;-78
2022/05/18 05:33:37;;;;;;;16.88;11.02;;;18.70;99.90;;;;;;7399025;19;20025;-78
2022/05/18 05:36:08;;;;;;;13.88;10.88;;;18.40;99.90;;;;;;7396091;19;20482;-79
2022/05/18 05:38:37;;;;;;;17.25;10.80;;;18.40;99.90;;;;;;7397062;19;20048;-79
2022/05/18 05:41:06;;;;;;;15.02;10.40;;;18.70;99.90;;;;;;7395677;19;20021;-78
2022/05/18 05:43:35;;;;;;;18.52;11.93;;;18.50;99.90;;;;;;7398667;19;20042;-79
2022/05/18 05:46:09;;;;;;;16.98;12.38;;;19.40;99.90;;;;;;7369733;19;20416;-79
2022/05/18 05:48:40;;;;;;;17.42;11.00;;;18.70;99.90;;;;;;7394276;19;20022;-80
2022/05/18 05:51:12;;;;;;;16.17;11.57;;;18.60;99.90;;;;;;7396564;19;20527;-79
2022/05/18 05:53:41;;;;;;;14.80;10.68;;;18.80;99.90;;;;;;7393672;19;20095;-81
2022/05/18 05:56:11;;;;;;;15.63;9.68;;;18.90;99.90;;;;;;7397797;19;20015;-81
2022/05/18 05:58:41;;;;;;;15.60;10.40;;;18.80;99.90;;;;;;7397430;19;20360;-80
2022/05/18 06:01:15;;;;;;;17.63;9.93;;;18.80;99.90;;;;;;7247961;19;20087;-81
2022/05/18 06:03:48;;;;;;;17.00;9.80;;;18.70;99.90;;;;;;7396858;19;20025;-77
2022/05/18 06:06:19;;;;;;;14.98;9.70;;;18.90;99.90;;;;;;7394064;19;20018;-78
2022/05/18 06:08:50;;;;;;;12.82;9.52;;;18.60;99.90;;;;;;7395923;19;20042;-77
2022/05/18 06:11:19;;;;;;;16.98;9.93;;;18.80;99.90;;;;;;7392406;19;20018;-79
2022/05/18 06:13:48;;;;;;;13.48;9.60;;;19.00;99.90;;;;;;7396736;19;20011;-85
2022/05/18 06:16:17;;;;;;;13.25;9.65;;;19.00;99.90;;;;;;7393698;19;20430;-77
2022/05/18 06:18:48;;;;;;;10.82;9.30;;;18.80;99.90;;;;;;7246107;19;20034;-78
2022/05/18 06:21:17;;;;;;;15.27;9.55;;;19.10;99.90;;;;;;7392415;19;21071;-78
2022/05/18 06:23:46;;;;;;;13.50;9.68;;;18.90;99.90;;;;;;7386136;19;20018;-78
2022/05/18 06:26:15;;;;;;;13.20;9.20;;;19.00;99.90;;;;;;7395997;19;20036;-78
2022/05/18 06:28:44;;;;;;;15.15;9.18;;;19.10;99.90;;;;;;7391210;19;20025;-78
2022/05/18 06:31:14;;;;;;;11.30;9.38;;;19.30;99.90;;;;;;7396060;19;20349;-78
2022/05/18 06:33:43;;;;;;;11.98;9.63;;;19.30;99.90;;;;;;7393918;19;20031;-78
2022/05/18 06:36:14;;;;;;;15.90;10.18;;;19.20;99.90;;;;;;7394687;19;20082;-78
2022/05/18 06:38:43;;;;;;;14.85;9.43;;;19.10;99.90;;;;;;7397297;19;20322;-78
2022/05/18 06:41:24;;;;;;;11.88;9.63;;;19.20;99.90;;;;;;7393621;19;20011;-78
2022/05/18 06:43:55;;;;;;;17.17;9.65;;;19.10;99.90;;;;;;7393739;19;20488;-78
2022/05/18 06:46:25;;;;;;;13.13;9.63;;;19.30;99.90;;;;;;7394796;19;20082;-78
2022/05/18 06:48:55;;;;;;;10.30;9.13;;;19.50;99.90;;;;;;7396143;19;20021;-78
2022/05/18 06:51:29;;;;;;;15.25;10.15;;;19.40;99.90;;;;;;7393257;19;20082;-77
2022/05/18 06:53:58;;;;;;;15.18;9.93;;;19.30;99.90;;;;;;7392013;19;20042;-77
2022/05/18 06:56:29;;;;;;;14.90;9.75;;;19.40;99.90;;;;;;7393002;19;20021;-78
2022/05/18 06:58:59;;;;;;;14.75;9.32;;;19.60;99.90;;;;;;7393347;19;20010;-78
2022/05/18 07:01:29;;;;;;;14.40;10.00;;;19.50;99.90;;;;;;7392641;19;20010;-78
2022/05/18 07:04:00;;;;;;;12.73;9.45;;;19.50;99.90;;;;;;7393453;19;20018;-78
2022/05/18 07:06:33;;;;;;;16.60;9.65;;;19.60;99.90;;;;;;7392649;19;20014;-78
2022/05/18 07:09:03;;;;;;;14.38;9.23;;;19.60;99.90;;;;;;7393690;19;20018;-78
2022/05/18 07:11:36;;;;;;;13.75;10.07;;;19.60;99.90;;;;;;7394895;19;20393;-78
2022/05/18 07:14:06;;;;;;;15.30;9.98;;;19.70;99.90;;;;;;7395233;19;20362;-78
2022/05/18 07:16:36;;;;;;;14.05;10.02;;;19.60;99.90;;;;;;7395205;19;20020;-78
2022/05/18 07:19:05;;;;;;;13.90;9.95;;;19.70;99.90;;;;;;7392580;19;20074;-78
2022/05/18 07:21:37;;;;;;;13.15;9.70;;;19.90;99.90;;;;;;7392322;19;20010;-78
2022/05/18 07:24:07;;;;;;;17.35;10.48;;;19.90;99.90;;;;;;7391604;19;20017;-78
2022/05/18 07:26:36;;;;;;;11.60;9.52;;;20.10;99.90;;;;;;7392248;19;20019;-78
2022/05/18 07:29:07;;;;;;;13.00;9.70;;;19.90;99.90;;;;;;7393862;19;20376;-79
2022/05/18 07:32:08;;;;;;;16.70;9.88;;;20.10;99.90;;;;;;7391646;19;20010;-77
2022/05/18 07:34:26;;;;;;;16.48;10.73;;;20.30;99.90;;;;;;7394996;19;20044;-77
2022/05/18 07:36:58;;;;;;;18.17;10.95;;;20.00;99.90;;;;;;7397710;19;20073;-77
2022/05/18 07:39:28;;;;;;;13.27;9.88;;;20.20;99.90;;;;;;7399578;19;20021;-77
2022/05/18 07:41:58;;;;;;;17.13;10.73;;;20.30;99.90;;;;;;7399459;19;20062;-77
2022/05/18 07:44:27;;;;;;;13.00;10.32;;;20.40;99.90;;;;;;7399549;19;20018;-77
2022/05/18 07:46:57;;;;;;;11.50;9.52;;;20.40;99.90;;;;;;7402794;19;20538;-77
2022/05/18 07:49:26;;;;;;;15.35;10.35;;;20.40;99.90;;;;;;7398202;19;20007;-78
2022/05/18 07:51:57;;;;;;;18.13;10.40;;;20.50;99.90;;;;;;7398555;19;20348;-76
2022/05/18 07:54:26;;;;;;;16.42;10.02;;;20.50;99.90;;;;;;7400104;19;20031;-77
2022/05/18 07:56:55;;;;;;;12.40;9.98;;;20.50;99.90;;;;;;7398791;19;20042;-77
2022/05/18 07:59:24;;;;;;;17.95;10.65;;;20.70;99.90;;;;;;7398791;19;20322;-77
2022/05/18 08:01:53;;;;;;;16.40;10.55;;;20.60;99.90;;;;;;7398868;19;20022;-77
2022/05/18 08:04:23;;;;;;;16.45;10.70;;;20.80;99.90;;;;;;7398969;19;20007;-77
2022/05/18 08:06:52;;;;;;;14.85;10.75;;;20.80;99.90;;;;;;7398568;19;20085;-77
2022/05/18 08:09:24;;;;;;;12.98;9.63;;;20.80;99.90;;;;;;7397401;19;20026;-78
2022/05/18 08:17:17;;;;;;;14.52;10.02;;;21.10;99.90;;;;;;7398016;19;20010;-77
2022/05/18 08:19:46;;;;;;;15.52;10.63;;;21.00;99.90;;;;;;7400262;19;20006;-77
2022/05/18 08:22:16;;;;;;;18.50;10.70;;;21.00;99.90;;;;;;7398770;19;20030;-77
2022/05/18 08:24:48;;;;;;;14.77;10.48;;;21.20;99.90;;;;;;7400067;19;20006;-76
2022/05/18 08:27:19;;;;;;;16.63;10.63;;;21.30;99.90;;;;;;7404322;19;20019;-77
2022/05/18 08:29:48;;;;;;;13.05;10.15;;;21.10;99.90;;;;;;7404219;19;20021;-77
2022/05/18 08:32:17;;;;;;;14.43;10.00;;;21.20;99.90;;;;;;7401195;19;20362;-77
2022/05/18 08:34:46;;;;;;;14.50;9.45;;;21.30;99.90;;;;;;7399680;19;20014;-77
2022/05/18 08:37:16;;;;;;;19.92;11.05;;;21.50;99.90;;;;;;7400877;19;20408;-77
2022/05/18 08:39:48;;;;;;;17.70;11.50;;;21.40;99.90;;;;;;7395967;19;20014;-77
2022/05/18 08:42:17;;;;;;;14.52;10.38;;;21.70;99.90;;;;;;7400677;19;20019;-77
2022/05/18 08:44:46;;;;;;;16.05;10.73;;;21.60;99.90;;;;;;7399109;19;20016;-77
2022/05/18 08:47:21;;;;;;;17.67;11.18;;;21.70;99.90;;;;;;7401167;19;20010;-77
2022/05/18 08:49:59;;;;;;;13.73;10.13;;;21.80;99.90;;;;;;7395872;19;20343;-77
2022/05/18 08:52:42;;;;;;;17.95;10.27;;;21.90;99.90;;;;;;7397227;19;20014;-77
2022/05/18 08:55:35;;;;;;;15.10;10.80;;;22.00;99.90;;;;;;7402054;19;20014;-77
2022/05/18 08:58:06;;;;;;;17.05;11.07;;;21.90;99.90;;;;;;7398460;19;20007;-77
2022/05/18 09:00:38;;;;;;;12.38;8.75;;;22.00;99.90;;;;;;7398560;19;20028;-77
2022/05/18 09:03:12;;;;;;;14.02;9.45;;;22.10;99.90;;;;;;7397609;19;20010;-78
2022/05/18 09:05:48;;;;;;;12.07;8.13;;;22.10;99.90;;;;;;7397263;19;20049;-77
2022/05/18 09:08:22;;;;;;;12.98;9.18;;;22.30;99.90;;;;;;7396542;19;20503;-77
2022/05/18 09:11:01;;;;;;;16.00;9.35;;;22.40;99.90;;;;;;7399445;19;20021;-77
2022/05/18 09:13:31;;;;;;;10.13;8.30;;;22.50;99.90;;;;;;7398244;19;20015;-77
2022/05/18 09:16:08;;;;;;;13.43;8.18;;;22.70;99.90;;;;;;7400294;19;20080;-77
2022/05/18 09:18:45;;;;;;;14.52;8.25;;;22.60;99.90;;;;;;7396240;19;20014;-77
2022/05/18 09:21:23;;;;;;;14.88;9.85;;;22.70;99.90;;;;;;7395881;19;20006;-77
2022/05/18 09:24:07;;;;;;;14.07;9.73;;;22.70;99.90;;;;;;7396281;19;20014;-77
2022/05/18 09:27:04;;;;;;;10.52;8.90;;;22.80;99.90;;;;;;7395552;19;20021;-77
2022/05/18 09:29:40;;;;;;;12.23;8.27;;;23.00;99.90;;;;;;7394890;19;20011;-78
2022/05/18 09:32:25;;;;;;;12.98;7.60;;;23.10;99.90;;;;;;7398334;19;20007;-77
2022/05/18 09:35:14;;;;;;;9.93;7.80;;;23.10;99.90;;;;;;7397934;19;20012;-77
2022/05/18 09:37:49;;;;;;;10.82;8.38;;;23.30;99.90;;;;;;7398362;19;20026;-77
2022/05/18 09:40:23;;;;;;;9.40;7.28;;;23.40;99.90;;;;;;7397954;19;20011;-77
2022/05/18 09:43:00;;;;;;;11.95;7.55;;;23.50;99.90;;;;;;7395863;19;20019;-77
2022/05/18 09:45:31;;;;;;;10.48;7.43;;;23.50;99.90;;;;;;7398215;19;20006;-77
2022/05/18 09:48:03;;;;;;;8.82;6.93;;;23.60;99.90;;;;;;7394653;19;20014;-77
2022/05/18 09:50:32;;;;;;;10.73;6.93;;;23.80;99.90;;;;;;7394049;19;20531;-78
2022/05/18 09:53:01;;;;;;;10.70;7.10;;;23.80;99.90;;;;;;7394580;19;20014;-77
2022/05/18 09:55:31;;;;;;;10.50;7.38;;;23.90;99.70;;;;;;7393520;19;20006;-77
2022/05/18 09:58:08;;;;;;;11.05;7.38;;;24.10;99.60;;;;;;7397641;19;20043;-78
2022/05/18 10:00:39;;;;;;;12.77;6.75;;;24.20;99.50;;;;;;7394471;19;20022;-78
2022/05/18 10:08:54;;;;;;;10.80;6.85;;;24.30;99.10;;;;;;7393875;19;20014;-77
2022/05/18 10:11:25;;;;;;;11.18;6.47;;;24.40;98.20;;;;;;7395390;19;20018;-77
2022/05/18 10:14:07;;;;;;;8.90;5.30;;;24.70;98.50;;;;;;7397700;19;20029;-77
2022/05/18 10:16:43;;;;;;;8.40;5.50;;;24.70;97.90;;;;;;7394008;19;20121;-79
2022/05/18 10:19:19;;;;;;;8.77;5.70;;;24.70;97.60;;;;;;7396498;19;20014;-77
2022/05/18 10:21:55;;;;;;;7.82;5.07;;;24.90;97.50;;;;;;7398383;19;20540;-77
2022/05/18 10:24:33;;;;;;;9.32;5.78;;;25.00;97.60;;;;;;7393131;19;20011;-78
2022/05/18 10:27:13;;;;;;;10.40;6.10;;;25.20;97.20;;;;;;7393152;19;20014;-78
2022/05/18 10:29:47;;;;;;;10.52;6.10;;;25.30;97.30;;;;;;7392617;19;20017;-77
2022/05/18 10:32:23;;;;;;;9.55;5.90;;;25.40;97.10;;;;;;7392097;19;20539;-78
2022/05/18 10:34:54;;;;;;;8.93;5.85;;;25.40;97.70;;;;;;7389279;19;20038;-88
2022/05/18 10:37:30;;;;;;;9.35;5.63;;;25.60;96.30;;;;;;7395871;19;20360;-79
2022/05/18 10:40:02;;;;;;;10.10;5.28;;;25.80;96.80;;;;;;7391609;19;20019;-78
2022/05/18 10:42:35;;;;;;;13.77;7.50;;;25.80;97.30;;;;;;7394621;19;20089;-78
2022/05/18 10:45:29;;;;;;;11.35;6.07;;;25.70;96.70;;;;;;7394520;19;20018;-79
2022/05/18 10:48:05;;;;;;;10.05;6.38;;;26.00;97.40;;;;;;7247320;19;20014;-78
2022/05/18 10:50:37;;;;;;;8.30;5.85;;;26.10;96.80;;;;;;7123260;19;175236;-78
2022/05/18 10:53:27;;;;;;;8.88;6.10;;;26.00;96.80;;;;;;7393974;19;20014;-78
2022/05/18 10:56:03;;;;;;;6.70;5.03;;;26.20;95.90;;;;;;7394808;19;20034;-78
2022/05/18 10:58:35;;;;;;;9.98;5.72;;;26.40;96.70;;;;;;7392440;19;20019;-79
2022/05/18 11:01:11;;;;;;;9.18;5.50;;;26.40;95.60;;;;;;7395523;19;20522;-79
2022/05/18 11:03:47;;;;;;;6.13;5.32;;;26.60;95.20;;;;;;7393691;19;20015;-78
2022/05/18 11:06:20;;;;;;;7.07;4.70;;;26.70;95.10;;;;;;7389323;19;20541;-79
2022/05/18 11:08:50;;;;;;;8.93;4.82;;;26.80;94.90;;;;;;7393440;19;20038;-79
2022/05/18 11:11:33;;;;;;;7.43;4.57;;;26.80;94.30;;;;;;7295346;19;20384;-78
2022/05/18 11:14:08;;;;;;;6.65;4.25;;;26.70;94.30;;;;;;7399170;19;20354;-78
2022/05/18 11:16:48;;;;;;;10.70;5.50;;;26.90;94.00;;;;;;7392556;19;20023;-79
2022/05/18 11:19:36;;;;;;;5.22;3.90;;;27.00;93.60;;;;;;7358592;19;20018;-80
2022/05/18 11:22:25;;;;;;;8.00;4.71;;;27.40;94.20;;;;;;7177471;19;3008867;-79
2022/05/18 11:25:07;;;;;;;7.85;4.47;;;27.40;93.20;;;;;;7399977;19;20017;-79
2022/05/18 11:27:43;;;;;;;7.80;4.50;;;27.40;92.60;;;;;;7399449;19;20054;-81
2022/05/18 11:30:16;;;;;;;7.10;4.22;;;27.60;91.60;;;;;;7397660;19;20024;-75
2022/05/18 11:33:07;;;;;;;10.02;4.65;;;27.80;91.70;;;;;;7399711;19;20024;-74
2022/05/18 11:35:44;;;;;;;9.00;4.55;;;27.90;89.20;;;;;;7401193;19;20025;-75
2022/05/18 11:38:33;;;;;;;8.57;4.85;;;27.80;89.90;;;;;;7401657;19;20036;-75
2022/05/18 11:41:13;;;;;;;6.15;4.50;;;27.80;88.00;;;;;;7400371;19;20347;-75
2022/05/18 11:43:55;;;;;;;8.50;4.63;;;27.90;89.00;;;;;;7400902;19;20089;-75
2022/05/18 11:46:42;;;;;;;9.35;4.82;;;28.00;88.20;;;;;;7399158;19;20015;-74
2022/05/18 11:49:20;;;;;;;6.28;4.13;;;28.30;90.30;;;;;;7400802;19;20017;-76
2022/05/18 11:52:09;;;;;;;4.43;3.55;;;28.40;89.60;;;;;;7397995;19;20015;-75
2022/05/18 11:55:04;;;;;;;7.10;3.55;;;28.50;88.80;;;;;;7398992;19;20007;-75
2022/05/18 11:57:44;;;;;;;5.10;3.45;;;28.50;84.30;;;;;;7398835;19;20352;-76
2022/05/18 12:00:34;;;;;;;9.20;3.80;;;28.80;86.80;;;;;;7402246;19;20010;-76
2022/05/18 12:03:19;;;;;;;5.45;3.67;;;28.70;84.80;;;;;;7398479;19;20015;-76
2022/05/18 12:06:13;;;;;;;7.10;4.35;;;28.80;82.60;;;;;;7402030;19;20539;-76
2022/05/18 12:09:12;;;;;;;7.22;4.47;;;28.80;81.00;;;;;;7398263;19;20352;-76
2022/05/18 12:11:52;;;;;;;7.68;3.65;;;28.90;80.90;;;;;;7395176;19;20396;-76
2022/05/18 12:14:30;;;;;;;6.10;4.90;;;29.10;80.60;;;;;;7401256;19;20087;-76
2022/05/18 12:17:05;;;;;;;7.40;4.25;;;28.80;81.80;;;;;;7398133;19;20021;-76
2022/05/18 12:19:41;;;;;;;9.30;3.97;;;28.80;82.00;;;;;;7396501;19;20010;-76
2022/05/18 12:22:15;;;;;;;5.85;3.85;;;28.80;79.40;;;;;;7399427;19;20379;-76
2022/05/18 12:24:48;;;;;;;6.10;4.03;;;29.10;78.30;;;;;;7397721;19;20065;-76
2022/05/18 12:27:20;;;;;;;9.30;4.35;;;29.20;78.50;;;;;;7399360;19;20014;-76
2022/05/18 12:29:51;;;;;;;7.80;3.75;;;29.20;78.40;;;;;;7397449;19;20014;-76
2022/05/18 12:32:21;;;;;;;7.63;4.30;;;29.30;80.10;;;;;;7397612;19;20021;-76
2022/05/18 12:35:01;;;;;;;6.65;4.70;;;29.30;78.10;;;;;;7399376;19;20010;-76
2022/05/18 12:37:36;;;;;;;7.25;4.00;;;29.20;78.60;;;;;;7397054;19;20360;-76
2022/05/18 12:40:26;;;;;;;7.35;4.32;;;28.80;79.00;;;;;;7401662;19;20015;-76
2022/05/18 12:43:03;;;;;;;6.03;4.60;;;28.70;79.00;;;;;;7396877;19;20039;-76
2022/05/18 12:45:38;;;;;;;6.93;4.10;;;27.70;79.40;;;;;;7395215;19;20014;-76
2022/05/18 12:48:14;;;;;;;8.15;4.90;;;28.90;78.00;;;;;;7396990;19;20018;-75
2022/05/18 12:50:52;;;;;;;7.78;5.35;;;28.60;78.90;;;;;;7395728;19;20022;-76
2022/05/18 12:53:27;;;;;;;8.90;5.32;;;28.50;81.20;;;;;;7397037;19;20014;-75
2022/05/18 12:56:02;;;;;;;11.88;5.28;;;28.50;82.30;;;;;;7399042;19;20010;-76
2022/05/18 12:58:34;;;;;;;8.97;5.57;;;28.80;82.50;;;;;;7398616;19;20010;-76
2022/05/18 13:01:14;;;;;;;8.13;5.10;;;29.20;82.10;;;;;;7397226;19;20018;-76
2022/05/18 13:03:57;;;;;;;5.95;4.18;;;29.50;79.70;;;;;;7396791;19;20010;-76
2022/05/18 13:06:40;;;;;;;5.75;4.07;;;29.40;77.40;;;;;;7396859;19;20408;-76
2022/05/18 13:09:35;;;;;;;5.47;3.60;;;29.30;76.60;;;;;;7399547;19;20010;-76
2022/05/18 13:12:23;;;;;;;14.20;4.72;;;28.90;77.80;;;;;;7394588;19;20006;-76
2022/05/18 13:15:03;;;;;;;10.00;5.20;;;28.60;81.90;;;;;;7399303;19;20511;-76
2022/05/18 13:17:51;;;;;;;9.50;5.20;;;28.40;81.40;;;;;;7397590;19;20052;-76
2022/05/18 13:20:48;;;;;;;8.85;4.95;;;28.50;82.60;;;;;;7394639;19;20406;-76
2022/05/18 13:23:27;;;;;;;7.53;4.57;;;28.40;82.30;;;;;;7398356;19;20421;-76